Time;durP1;ratioP1;P1;durP2;ratioP2;P2;SDS_P1;SDS_P2;PMS_P1;PMS_P2;Temp;Humidity;BMP_temperature;BMP_pressure;BME280_temperature;BME280_humidity;BME280_pressure;Samples;Min_cycle;Max_cycle;Signal;HPM_P1;HPM_P2
2020/12/27 00:01:08;;;;;;;3.10;1.60;;;4.50;99.90;;;;;;5015776;28;20469;-89
2020/12/27 00:03:35;;;;;;;4.17;1.50;;;4.40;99.90;;;;;;5016470;28;20459;-91
2020/12/27 00:06:01;;;;;;;2.43;1.43;;;4.50;99.90;;;;;;5017357;28;20485;-90
2020/12/27 00:08:29;;;;;;;2.60;1.60;;;4.50;99.90;;;;;;5026164;28;20442;-90
2020/12/27 00:10:58;;;;;;;3.40;1.80;;;4.60;99.90;;;;;;5028230;28;20563;-93
2020/12/27 00:13:28;;;;;;;2.43;1.60;;;4.60;99.90;;;;;;5038844;28;20463;-89
2020/12/27 00:15:55;;;;;;;5.57;2.17;;;4.60;99.90;;;;;;5037387;28;20457;-90
2020/12/27 00:18:22;;;;;;;2.40;1.40;;;4.60;99.90;;;;;;5037639;28;20494;-90
2020/12/27 00:20:50;;;;;;;3.60;1.80;;;4.60;99.90;;;;;;5038296;28;20457;-89
2020/12/27 00:23:16;;;;;;;2.50;1.60;;;4.60;99.90;;;;;;5024845;28;20461;-90
2020/12/27 00:25:48;;;;;;;2.10;1.30;;;4.60;99.90;;;;;;5043764;28;20504;-89
2020/12/27 00:28:14;;;;;;;2.70;1.50;;;4.60;99.90;;;;;;5039184;28;20462;-90
2020/12/27 00:30:41;;;;;;;3.63;1.50;;;4.70;99.90;;;;;;5039495;28;20457;-90
2020/12/27 00:33:08;;;;;;;3.90;1.20;;;4.70;99.90;;;;;;5040910;28;20926;-90
2020/12/27 00:35:37;;;;;;;2.10;1.50;;;4.60;99.90;;;;;;5045361;28;20458;-89
2020/12/27 00:38:04;;;;;;;3.40;1.50;;;4.50;99.90;;;;;;5039649;28;20461;-90
2020/12/27 00:40:31;;;;;;;3.80;2.00;;;4.50;99.90;;;;;;5043373;28;20457;-91
2020/12/27 00:42:58;;;;;;;1.93;1.20;;;4.50;99.90;;;;;;5041279;28;20464;-92
2020/12/27 00:45:24;;;;;;;4.13;1.63;;;4.60;99.90;;;;;;5042174;28;20482;-89
2020/12/27 00:47:51;;;;;;;2.40;1.53;;;4.50;99.90;;;;;;5039970;28;20461;-89
2020/12/27 00:50:17;;;;;;;3.30;1.50;;;4.40;99.90;;;;;;5034560;28;20468;-92
2020/12/27 00:52:45;;;;;;;2.10;1.40;;;4.40;99.90;;;;;;5023567;28;20528;-88
2020/12/27 00:55:15;;;;;;;2.50;1.40;;;4.50;99.90;;;;;;5041969;28;20454;-91
2020/12/27 00:57:41;;;;;;;1.90;1.20;;;4.50;99.90;;;;;;5042508;28;20568;-89
2020/12/27 01:00:08;;;;;;;2.60;1.40;;;4.40;99.90;;;;;;5053528;28;20452;-91
2020/12/27 01:02:34;;;;;;;2.37;1.63;;;4.40;99.90;;;;;;5055863;28;20461;-89
2020/12/27 01:05:00;;;;;;;2.27;1.27;;;4.40;99.90;;;;;;5042004;28;21086;-92
2020/12/27 01:07:27;;;;;;;2.83;1.60;;;4.40;99.90;;;;;;5052528;28;20469;-90
2020/12/27 01:09:53;;;;;;;2.20;1.50;;;4.40;99.90;;;;;;5047925;28;20936;-92
2020/12/27 01:12:21;;;;;;;2.40;1.20;;;4.30;99.90;;;;;;5051312;28;20468;-90
2020/12/27 01:14:47;;;;;;;2.23;1.23;;;4.40;99.90;;;;;;5048766;28;20518;-89
2020/12/27 01:17:14;;;;;;;2.20;1.20;;;4.40;99.90;;;;;;5046875;28;20508;-93
2020/12/27 01:19:40;;;;;;;3.50;1.20;;;4.40;99.90;;;;;;5048078;28;20453;-89
2020/12/27 01:22:07;;;;;;;2.33;1.40;;;4.40;99.90;;;;;;5039836;28;20456;-91
2020/12/27 01:24:33;;;;;;;3.03;1.57;;;4.30;99.90;;;;;;5035800;28;20519;-90
2020/12/27 01:27:00;;;;;;;2.20;1.10;;;4.40;99.90;;;;;;5035980;28;20519;-92
2020/12/27 01:29:27;;;;;;;3.93;1.10;;;4.40;99.90;;;;;;5035669;28;20485;-92
2020/12/27 01:32:00;;;;;;;2.83;1.30;;;4.40;99.90;;;;;;5036398;28;20474;-90
2020/12/27 01:34:27;;;;;;;2.93;1.30;;;4.40;99.90;;;;;;5039044;28;20548;-91
2020/12/27 01:36:54;;;;;;;2.40;1.63;;;4.50;99.90;;;;;;5037957;28;20463;-90
2020/12/27 01:39:20;;;;;;;2.73;1.27;;;4.50;99.90;;;;;;5038412;28;20449;-89
2020/12/27 01:41:47;;;;;;;1.80;1.00;;;4.50;99.90;;;;;;5036797;28;20457;-89
2020/12/27 01:44:15;;;;;;;1.90;0.90;;;4.50;99.90;;;;;;5035629;28;20470;-89
2020/12/27 01:46:44;;;;;;;2.10;1.30;;;4.40;99.90;;;;;;5037191;28;20856;-89
2020/12/27 01:49:12;;;;;;;2.87;1.10;;;4.50;99.90;;;;;;5035811;28;20468;-91
2020/12/27 01:51:39;;;;;;;2.53;1.30;;;4.40;99.90;;;;;;5035532;28;20462;-87
2020/12/27 01:54:06;;;;;;;2.30;1.40;;;4.40;99.90;;;;;;5037346;28;20445;-89
2020/12/27 01:56:35;;;;;;;2.00;1.10;;;4.50;99.90;;;;;;5037106;28;20441;-89
2020/12/27 01:59:04;;;;;;;1.87;0.93;;;4.50;99.90;;;;;;5035896;28;20461;-89
2020/12/27 02:01:32;;;;;;;1.97;1.00;;;4.50;99.90;;;;;;5036858;28;20554;-90
2020/12/27 02:04:04;;;;;;;2.47;1.07;;;4.60;99.90;;;;;;5050975;28;20463;-92
2020/12/27 02:06:32;;;;;;;7.63;1.23;;;4.60;99.90;;;;;;5047461;28;20859;-91
2020/12/27 02:09:03;;;;;;;2.60;1.00;;;4.70;99.90;;;;;;5034541;28;20460;-91
2020/12/27 02:11:30;;;;;;;4.33;1.20;;;4.60;99.90;;;;;;5014141;28;20820;-90
2020/12/27 02:14:00;;;;;;;4.60;1.13;;;4.60;99.90;;;;;;5008341;28;20843;-90
2020/12/27 02:16:29;;;;;;;1.90;0.90;;;4.50;99.90;;;;;;5018009;28;20455;-91
2020/12/27 02:18:56;;;;;;;1.80;1.00;;;4.50;99.90;;;;;;5015174;28;20553;-90
2020/12/27 02:21:24;;;;;;;2.00;1.10;;;4.50;99.90;;;;;;5014830;28;20954;-90
2020/12/27 02:23:55;;;;;;;1.80;1.13;;;4.50;99.90;;;;;;5015254;28;20459;-91
2020/12/27 02:26:22;;;;;;;1.70;1.00;;;4.40;99.90;;;;;;5015093;28;20481;-89
2020/12/27 02:28:48;;;;;;;1.83;0.90;;;4.40;99.90;;;;;;5026105;28;20452;-90
2020/12/27 02:31:15;;;;;;;2.07;1.20;;;4.40;99.90;;;;;;5016917;28;20478;-91
2020/12/27 02:33:41;;;;;;;2.00;1.03;;;4.50;99.90;;;;;;5014801;28;20931;-91
2020/12/27 02:36:11;;;;;;;2.23;0.97;;;4.40;99.90;;;;;;5014172;28;20462;-90
2020/12/27 02:38:38;;;;;;;2.47;1.13;;;4.40;99.90;;;;;;5015053;28;20454;-91
2020/12/27 02:41:16;;;;;;;2.63;0.90;;;4.40;99.90;;;;;;5014265;28;20545;-90
2020/12/27 02:43:43;;;;;;;2.20;1.17;;;4.40;99.90;;;;;;5014380;28;20860;-91
2020/12/27 02:46:19;;;;;;;2.53;0.90;;;4.50;99.90;;;;;;5014054;28;20855;-90
2020/12/27 02:48:45;;;;;;;2.40;1.00;;;4.50;99.90;;;;;;5014821;28;20498;-90
2020/12/27 02:51:12;;;;;;;1.93;0.90;;;4.50;99.90;;;;;;5013554;28;20470;-90
2020/12/27 02:53:38;;;;;;;1.70;0.90;;;4.50;99.90;;;;;;5006146;28;20532;-90
2020/12/27 02:56:05;;;;;;;2.33;1.17;;;4.60;99.90;;;;;;4997992;28;20523;-89
2020/12/27 02:58:32;;;;;;;1.77;0.87;;;4.60;99.90;;;;;;5014635;28;21003;-90
2020/12/27 03:00:59;;;;;;;2.57;0.90;;;4.60;99.90;;;;;;5014704;28;20462;-91
2020/12/27 03:03:25;;;;;;;2.07;1.00;;;4.60;99.90;;;;;;5014143;28;20468;-90
2020/12/27 03:05:52;;;;;;;2.50;1.10;;;4.60;99.90;;;;;;5015535;28;20975;-90
2020/12/27 03:08:19;;;;;;;2.63;1.00;;;4.60;99.90;;;;;;5015202;28;20488;-89
2020/12/27 03:10:46;;;;;;;2.10;1.00;;;4.70;99.90;;;;;;5025177;28;20485;-91
2020/12/27 03:13:12;;;;;;;1.97;0.90;;;4.70;99.90;;;;;;5031970;28;20549;-90
2020/12/27 03:15:40;;;;;;;3.27;0.90;;;4.80;99.90;;;;;;5015114;28;20504;-89
2020/12/27 03:18:06;;;;;;;1.90;0.83;;;4.70;99.90;;;;;;5019110;28;20464;-90
2020/12/27 03:20:33;;;;;;;1.80;0.77;;;4.70;99.90;;;;;;5034344;28;20492;-92
2020/12/27 03:22:59;;;;;;;1.83;1.00;;;4.70;99.90;;;;;;5031569;28;20457;-89
2020/12/27 03:25:26;;;;;;;3.20;0.80;;;4.80;99.90;;;;;;5033517;28;20481;-89
2020/12/27 03:27:52;;;;;;;1.90;0.97;;;4.80;99.90;;;;;;5033648;28;20548;-89
2020/12/27 03:30:19;;;;;;;2.13;0.90;;;4.80;99.90;;;;;;5033202;28;20476;-89
2020/12/27 03:32:46;;;;;;;4.23;1.00;;;4.80;99.90;;;;;;5033532;28;20514;-90
2020/12/27 03:35:13;;;;;;;1.60;0.80;;;4.80;99.90;;;;;;5032824;28;20454;-90
2020/12/27 03:37:39;;;;;;;2.47;0.80;;;4.80;99.90;;;;;;5022608;28;20490;-91
2020/12/27 03:40:08;;;;;;;1.80;0.90;;;4.80;99.90;;;;;;5018720;28;20466;-93
2020/12/27 03:42:34;;;;;;;3.27;1.00;;;4.80;99.90;;;;;;5031047;28;20988;-90
2020/12/27 03:45:01;;;;;;;2.20;1.10;;;4.80;99.90;;;;;;5031232;28;20977;-90
2020/12/27 03:47:27;;;;;;;2.40;0.83;;;4.70;99.90;;;;;;5036300;28;20605;-90
2020/12/27 03:49:55;;;;;;;1.90;0.80;;;4.70;99.90;;;;;;5036964;28;20553;-89
2020/12/27 03:52:21;;;;;;;1.70;0.90;;;4.70;99.90;;;;;;5036385;28;20515;-88
2020/12/27 03:54:48;;;;;;;1.60;0.67;;;4.80;99.90;;;;;;5029053;28;20560;-88
2020/12/27 03:57:14;;;;;;;1.90;0.90;;;4.70;99.90;;;;;;5016446;28;20554;-89
2020/12/27 03:59:41;;;;;;;2.37;0.80;;;4.70;99.90;;;;;;5029200;28;20914;-88
2020/12/27 04:02:08;;;;;;;2.27;0.90;;;4.80;99.90;;;;;;5035770;28;20461;-88
2020/12/27 04:04:34;;;;;;;2.03;0.80;;;4.80;99.90;;;;;;5035879;28;20496;-88
2020/12/27 04:07:01;;;;;;;2.00;0.90;;;4.80;99.90;;;;;;5036486;28;20552;-89
2020/12/27 04:09:28;;;;;;;1.60;0.70;;;4.80;99.90;;;;;;5030769;28;20666;-88
2020/12/27 04:11:54;;;;;;;1.80;0.90;;;4.80;99.90;;;;;;5036091;28;20933;-90
2020/12/27 04:14:21;;;;;;;2.07;1.00;;;4.80;99.90;;;;;;5033087;28;20450;-89
2020/12/27 04:16:47;;;;;;;1.70;0.80;;;4.80;99.90;;;;;;5037183;28;20527;-89
2020/12/27 04:19:13;;;;;;;1.90;0.80;;;4.80;99.90;;;;;;5030936;28;20945;-90
2020/12/27 04:21:42;;;;;;;1.87;0.70;;;4.80;99.90;;;;;;5030037;28;20446;-88
2020/12/27 04:24:10;;;;;;;2.20;0.80;;;4.90;99.90;;;;;;5037396;28;20509;-89
2020/12/27 04:26:37;;;;;;;2.13;0.83;;;4.80;99.90;;;;;;5027728;28;20961;-89
2020/12/27 04:29:03;;;;;;;1.70;0.80;;;4.80;99.90;;;;;;5016631;28;20510;-90
2020/12/27 04:31:30;;;;;;;3.00;0.70;;;4.80;99.90;;;;;;5026835;28;20480;-89
2020/12/27 04:33:57;;;;;;;2.37;0.87;;;4.80;99.90;;;;;;5035591;28;20930;-90
2020/12/27 04:36:24;;;;;;;2.00;0.93;;;4.90;99.90;;;;;;5030782;28;20800;-89
2020/12/27 04:38:51;;;;;;;1.90;0.80;;;4.90;99.90;;;;;;5035637;28;20836;-90
2020/12/27 04:41:19;;;;;;;1.67;0.70;;;4.90;99.90;;;;;;5035806;28;20555;-90
2020/12/27 04:43:47;;;;;;;2.77;0.83;;;4.90;99.90;;;;;;5035758;28;20496;-92
2020/12/27 04:46:16;;;;;;;1.60;0.70;;;4.90;99.90;;;;;;5035349;28;20512;-90
2020/12/27 04:48:44;;;;;;;2.50;0.87;;;4.90;99.90;;;;;;5035730;28;20482;-91
2020/12/27 04:51:12;;;;;;;1.60;0.70;;;4.80;99.90;;;;;;5034446;28;20527;-90
2020/12/27 04:53:40;;;;;;;1.70;0.70;;;4.90;99.90;;;;;;5035357;28;20458;-91
2020/12/27 04:56:08;;;;;;;2.07;1.10;;;4.90;99.90;;;;;;5031734;28;20462;-90
2020/12/27 04:58:35;;;;;;;1.60;0.70;;;5.00;99.90;;;;;;5035784;28;20500;-89
2020/12/27 05:01:03;;;;;;;1.67;0.70;;;4.90;99.90;;;;;;5035930;28;20497;-88
2020/12/27 05:03:30;;;;;;;1.90;0.70;;;5.00;99.90;;;;;;5035074;28;20513;-89
2020/12/27 05:05:57;;;;;;;1.87;1.10;;;4.90;99.90;;;;;;5035166;28;20496;-89
2020/12/27 05:08:23;;;;;;;1.57;0.70;;;5.00;99.90;;;;;;5034573;28;20464;-90
2020/12/27 05:10:50;;;;;;;2.10;0.80;;;4.90;99.90;;;;;;5034706;28;20776;-90
2020/12/27 05:13:17;;;;;;;2.43;0.73;;;4.90;99.90;;;;;;5035189;28;20483;-90
2020/12/27 05:15:45;;;;;;;1.50;0.60;;;4.90;99.90;;;;;;5035435;28;20460;-92
2020/12/27 05:18:12;;;;;;;1.90;0.80;;;4.90;99.90;;;;;;5034691;28;20468;-91
2020/12/27 05:20:41;;;;;;;1.90;0.70;;;4.90;99.90;;;;;;5016265;28;20462;-92
2020/12/27 05:23:09;;;;;;;1.60;0.70;;;5.00;99.90;;;;;;5026579;28;20461;-90
2020/12/27 05:25:38;;;;;;;3.07;0.70;;;4.90;99.90;;;;;;5035173;28;20579;-91
2020/12/27 05:28:07;;;;;;;1.60;0.60;;;5.00;99.90;;;;;;5035189;28;20464;-89
2020/12/27 05:30:33;;;;;;;1.50;0.63;;;5.00;99.90;;;;;;5034719;28;20472;-92
2020/12/27 05:33:01;;;;;;;1.60;0.60;;;4.90;99.90;;;;;;5034834;28;20525;-88
2020/12/27 05:35:28;;;;;;;1.87;0.60;;;5.00;99.90;;;;;;5034177;28;20489;-89
2020/12/27 05:37:54;;;;;;;2.43;0.80;;;4.90;99.90;;;;;;5034572;28;20486;-90
2020/12/27 05:40:21;;;;;;;1.60;0.60;;;5.00;99.90;;;;;;5034551;28;20492;-89
2020/12/27 05:42:48;;;;;;;1.60;0.60;;;5.00;99.90;;;;;;5030172;28;20477;-90
2020/12/27 05:45:16;;;;;;;1.60;0.60;;;5.10;99.90;;;;;;5014953;28;20482;-89
2020/12/27 05:47:44;;;;;;;4.70;0.70;;;5.00;99.90;;;;;;5034558;28;20544;-90
2020/12/27 05:50:15;;;;;;;1.73;0.80;;;5.00;99.90;;;;;;5034312;28;20547;-92
2020/12/27 05:52:45;;;;;;;1.60;0.70;;;5.10;99.90;;;;;;5034666;28;20495;-90
2020/12/27 05:55:18;;;;;;;1.60;0.60;;;5.10;99.90;;;;;;5034157;28;20460;-92
2020/12/27 05:57:50;;;;;;;1.90;0.80;;;5.10;99.90;;;;;;5035302;28;20556;-91
2020/12/27 06:00:19;;;;;;;1.60;0.70;;;5.10;99.90;;;;;;5033495;28;20593;-89
2020/12/27 06:02:55;;;;;;;1.90;0.70;;;5.10;99.90;;;;;;5034763;28;20496;-93
2020/12/27 06:05:52;;;;;;;1.67;0.63;;;5.20;99.90;;;;;;5033920;28;20481;-91
2020/12/27 06:08:48;;;;;;;2.93;0.70;;;5.20;99.90;;;;;;5034329;28;20468;-90
2020/12/27 06:11:35;;;;;;;2.20;0.80;;;5.10;99.90;;;;;;5003591;28;20485;-90
2020/12/27 06:14:36;;;;;;;1.90;0.80;;;5.20;99.90;;;;;;5032447;28;20467;-90
2020/12/27 06:17:09;;;;;;;1.60;0.70;;;5.10;99.90;;;;;;5031514;28;20910;-89
2020/12/27 06:19:47;;;;;;;1.60;0.70;;;5.10;99.90;;;;;;5032578;28;20558;-90
2020/12/27 06:22:25;;;;;;;2.00;0.93;;;5.10;99.90;;;;;;5023357;28;20430;-90
2020/12/27 06:24:53;;;;;;;1.90;0.70;;;5.10;99.90;;;;;;5032491;28;20482;-92
2020/12/27 06:27:19;;;;;;;2.20;0.80;;;5.10;99.90;;;;;;5032296;28;20546;-90
2020/12/27 06:29:51;;;;;;;2.17;0.80;;;5.20;99.90;;;;;;5034275;28;20458;-89
2020/12/27 06:32:23;;;;;;;1.70;0.70;;;5.10;99.90;;;;;;5035754;28;20861;-90
2020/12/27 06:34:50;;;;;;;1.70;0.80;;;5.10;99.90;;;;;;5035230;28;20523;-88
2020/12/27 06:37:18;;;;;;;1.80;0.80;;;5.20;99.90;;;;;;5039835;28;20454;-91
2020/12/27 06:39:45;;;;;;;1.80;0.90;;;5.20;99.90;;;;;;5052815;28;20554;-89
2020/12/27 06:42:14;;;;;;;1.60;0.70;;;5.20;99.90;;;;;;5035630;28;20464;-91
2020/12/27 06:44:45;;;;;;;1.60;0.70;;;5.20;99.90;;;;;;5034258;28;20909;-91
2020/12/27 06:47:13;;;;;;;1.53;0.60;;;5.20;99.90;;;;;;5020179;28;20846;-91
2020/12/27 06:49:39;;;;;;;1.70;0.80;;;5.20;99.90;;;;;;5021107;28;20559;-89
2020/12/27 06:52:20;;;;;;;1.60;0.70;;;5.20;99.90;;;;;;5034412;28;20511;-90
2020/12/27 06:54:48;;;;;;;1.60;0.70;;;5.20;99.90;;;;;;5014478;28;20537;-91
2020/12/27 06:57:52;;;;;;;1.97;0.60;;;5.30;99.90;;;;;;5024809;28;20463;-92
2020/12/27 07:00:23;;;;;;;2.10;0.60;;;5.20;99.90;;;;;;5038499;28;20493;-89
2020/12/27 07:03:07;;;;;;;1.50;0.60;;;5.30;99.90;;;;;;5040976;28;20427;-90
2020/12/27 07:05:35;;;;;;;1.60;0.70;;;5.20;99.90;;;;;;5039137;28;20490;-90
2020/12/27 07:08:04;;;;;;;1.80;0.60;;;5.30;99.90;;;;;;5039278;28;20452;-89
2020/12/27 07:10:36;;;;;;;1.50;0.60;;;5.30;99.90;;;;;;5026979;28;21014;-89
2020/12/27 07:13:04;;;;;;;1.70;0.70;;;5.30;99.90;;;;;;5031465;28;20461;-89
2020/12/27 07:15:32;;;;;;;1.60;0.60;;;5.30;99.90;;;;;;5040417;28;20511;-89
2020/12/27 07:18:06;;;;;;;1.70;0.70;;;5.30;99.90;;;;;;5039460;28;21086;-89
2020/12/27 07:20:33;;;;;;;1.70;0.80;;;5.30;99.90;;;;;;5039387;28;20462;-88
2020/12/27 07:22:59;;;;;;;3.47;0.87;;;5.30;99.90;;;;;;5040894;28;20496;-89
2020/12/27 07:25:30;;;;;;;2.10;0.70;;;5.30;99.90;;;;;;5041335;28;20489;-90
2020/12/27 07:27:58;;;;;;;1.70;0.67;;;5.30;99.90;;;;;;5046895;28;20916;-90
2020/12/27 07:33:46;;;;;;;1.70;0.63;;;5.40;99.90;;;;;;5040683;28;20443;-89
2020/12/27 07:36:15;;;;;;;1.50;0.60;;;5.40;99.90;;;;;;5041669;28;20523;-90
2020/12/27 07:38:59;;;;;;;1.57;0.67;;;5.40;99.90;;;;;;5040622;28;20523;-89
2020/12/27 07:41:28;;;;;;;3.60;0.77;;;5.40;99.90;;;;;;5038423;28;20545;-89
2020/12/27 07:43:57;;;;;;;1.60;0.60;;;5.40;99.90;;;;;;5039879;28;20486;-90
2020/12/27 07:46:24;;;;;;;1.60;0.50;;;5.40;99.90;;;;;;5039316;28;20475;-89
2020/12/27 07:48:57;;;;;;;1.50;0.53;;;5.40;99.90;;;;;;5042644;28;20834;-89
2020/12/27 07:51:25;;;;;;;2.23;0.63;;;5.50;99.90;;;;;;5041169;28;20530;-88
2020/12/27 07:53:53;;;;;;;4.27;0.70;;;5.50;99.90;;;;;;5022965;28;20526;-91
2020/12/27 07:56:21;;;;;;;1.50;0.50;;;5.40;99.90;;;;;;5022534;28;20520;-89
2020/12/27 07:58:53;;;;;;;1.57;0.60;;;5.40;99.90;;;;;;5022153;28;21004;-88
2020/12/27 08:01:24;;;;;;;1.50;0.50;;;5.30;99.90;;;;;;5022517;28;20458;-89
2020/12/27 08:03:53;;;;;;;1.90;0.80;;;5.30;99.90;;;;;;5026543;28;20488;-89
2020/12/27 08:06:20;;;;;;;2.13;0.80;;;5.20;99.90;;;;;;5034357;28;20836;-90
2020/12/27 08:08:48;;;;;;;2.70;0.67;;;5.20;99.90;;;;;;5040782;28;20483;-88
2020/12/27 08:11:24;;;;;;;1.60;0.60;;;5.20;99.90;;;;;;5032356;28;20558;-88
2020/12/27 08:14:00;;;;;;;1.80;0.60;;;5.30;99.90;;;;;;5023903;28;20444;-88
2020/12/27 08:16:28;;;;;;;1.50;0.60;;;5.30;99.90;;;;;;5022421;28;20418;-88
2020/12/27 08:19:02;;;;;;;1.70;0.80;;;5.40;99.90;;;;;;5021973;28;20997;-88
2020/12/27 08:21:29;;;;;;;1.60;0.70;;;5.40;99.90;;;;;;5021519;28;20448;-87
2020/12/27 08:24:01;;;;;;;1.57;0.63;;;5.40;99.90;;;;;;5021299;28;20484;-89
2020/12/27 08:26:35;;;;;;;1.60;0.70;;;5.40;99.90;;;;;;5022607;28;20488;-91
2020/12/27 08:29:14;;;;;;;1.60;0.70;;;5.40;99.90;;;;;;5021613;28;20491;-89
2020/12/27 08:31:42;;;;;;;1.70;0.80;;;5.40;99.90;;;;;;5022231;28;20473;-88
2020/12/27 08:34:11;;;;;;;1.60;0.60;;;5.40;99.90;;;;;;5023309;28;20464;-88
2020/12/27 08:36:53;;;;;;;1.60;0.60;;;5.40;99.90;;;;;;5021108;28;20462;-88
2020/12/27 08:39:38;;;;;;;1.53;0.53;;;5.50;99.90;;;;;;5002627;28;20440;-88
2020/12/27 08:42:08;;;;;;;2.40;0.70;;;5.50;99.90;;;;;;5001830;28;20523;-88
2020/12/27 08:44:44;;;;;;;1.70;0.70;;;5.50;99.90;;;;;;4998752;28;20491;-87
2020/12/27 08:47:36;;;;;;;1.70;0.60;;;5.50;99.90;;;;;;5007371;28;20449;-87
2020/12/27 08:50:07;;;;;;;2.57;0.50;;;5.60;99.90;;;;;;5022468;28;20489;-88
2020/12/27 08:52:34;;;;;;;1.60;0.70;;;5.60;99.90;;;;;;5021492;28;20439;-88
2020/12/27 08:55:04;;;;;;;3.20;1.10;;;5.70;99.90;;;;;;5024581;28;20485;-87
2020/12/27 08:57:34;;;;;;;1.53;0.57;;;5.70;99.90;;;;;;5001413;28;20453;-88
2020/12/27 09:00:28;;;;;;;1.60;0.60;;;5.70;99.90;;;;;;5000952;28;20461;-88
2020/12/27 09:02:57;;;;;;;1.60;0.57;;;5.70;99.90;;;;;;5002609;28;20543;-90
2020/12/27 09:05:26;;;;;;;1.60;0.63;;;5.70;99.90;;;;;;5005001;28;20485;-89
2020/12/27 09:08:15;;;;;;;1.50;0.60;;;5.60;99.90;;;;;;5004969;28;20482;-88
2020/12/27 09:10:42;;;;;;;2.10;0.60;;;5.60;99.90;;;;;;5010571;28;20511;-90
2020/12/27 09:13:15;;;;;;;1.60;0.60;;;5.50;99.90;;;;;;5020799;28;20475;-89
2020/12/27 09:15:52;;;;;;;1.60;0.63;;;5.60;99.90;;;;;;5022783;28;20532;-88
2020/12/27 09:18:28;;;;;;;1.80;0.70;;;5.60;99.90;;;;;;5022061;28;20458;-90
2020/12/27 09:20:58;;;;;;;1.60;0.60;;;5.60;99.90;;;;;;5042982;28;20455;-90
2020/12/27 09:23:25;;;;;;;1.53;0.50;;;5.60;99.90;;;;;;5037496;28;20467;-88
2020/12/27 09:26:05;;;;;;;1.50;0.50;;;5.70;99.90;;;;;;5044883;28;20580;-89
2020/12/27 09:28:32;;;;;;;1.93;0.60;;;5.80;99.90;;;;;;5048545;28;20519;-89
2020/12/27 09:31:01;;;;;;;1.50;0.50;;;5.80;99.90;;;;;;5036665;28;20549;-89
2020/12/27 09:33:29;;;;;;;1.50;0.60;;;5.80;99.90;;;;;;5036350;28;20448;-90
2020/12/27 09:35:56;;;;;;;1.50;0.60;;;5.80;99.90;;;;;;5035483;28;20986;-89
2020/12/27 09:38:24;;;;;;;1.90;0.70;;;5.90;99.90;;;;;;5025439;28;20534;-87
2020/12/27 09:41:06;;;;;;;1.90;0.70;;;5.90;99.90;;;;;;5037236;28;20463;-91
2020/12/27 09:43:45;;;;;;;1.60;0.70;;;5.90;99.90;;;;;;5034890;28;20555;-90
2020/12/27 09:46:13;;;;;;;1.77;0.60;;;6.00;99.90;;;;;;5037782;28;21009;-90
2020/12/27 09:48:40;;;;;;;2.10;0.60;;;5.90;99.90;;;;;;5038653;28;20471;-91
2020/12/27 09:51:16;;;;;;;1.50;0.60;;;5.80;99.90;;;;;;5036699;28;20442;-90
2020/12/27 09:53:42;;;;;;;1.70;0.60;;;5.70;99.90;;;;;;5035825;28;20437;-90
2020/12/27 09:56:09;;;;;;;1.53;0.60;;;5.60;99.90;;;;;;5036431;28;20854;-90
2020/12/27 09:58:36;;;;;;;1.50;0.60;;;5.60;99.90;;;;;;5036028;28;20459;-91
2020/12/27 10:01:19;;;;;;;1.70;0.60;;;5.60;99.90;;;;;;5040184;28;20504;-89
2020/12/27 10:03:47;;;;;;;1.50;0.60;;;5.50;99.90;;;;;;5040335;28;20459;-90
2020/12/27 10:06:17;;;;;;;1.80;0.63;;;5.50;99.90;;;;;;5039210;28;20513;-90
2020/12/27 10:08:45;;;;;;;1.60;0.63;;;5.40;99.90;;;;;;5039722;28;20669;-92
2020/12/27 10:11:12;;;;;;;2.13;0.60;;;5.40;99.90;;;;;;5039782;28;20482;-90
2020/12/27 10:13:38;;;;;;;4.03;0.70;;;5.40;99.90;;;;;;5038767;28;20470;-90
2020/12/27 10:16:05;;;;;;;1.70;0.70;;;5.30;99.90;;;;;;5039173;28;20535;-91
2020/12/27 10:18:45;;;;;;;2.80;0.70;;;5.30;99.90;;;;;;5040683;28;20503;-90
2020/12/27 10:21:41;;;;;;;1.77;0.70;;;5.30;99.90;;;;;;5042995;28;20464;-90
2020/12/27 10:24:09;;;;;;;1.97;0.70;;;5.30;99.90;;;;;;5043276;28;20468;-90
2020/12/27 10:26:39;;;;;;;2.00;0.70;;;5.30;99.90;;;;;;5039529;28;20498;-92
2020/12/27 10:29:06;;;;;;;1.50;0.70;;;5.30;99.90;;;;;;5042488;28;20462;-91
2020/12/27 10:31:38;;;;;;;1.50;0.60;;;5.20;99.90;;;;;;5029617;28;20496;-93
2020/12/27 10:34:08;;;;;;;1.80;0.77;;;5.30;99.90;;;;;;5030128;28;20456;-90
2020/12/27 10:39:32;;;;;;;2.13;0.90;;;5.20;99.90;;;;;;5028081;28;20422;-92
2020/12/27 10:45:40;;;;;;;2.20;0.70;;;5.20;99.90;;;;;;5012607;28;20482;-93
2020/12/27 10:48:12;;;;;;;1.50;0.57;;;5.20;99.90;;;;;;5039764;28;20500;-91
2020/12/27 10:53:39;;;;;;;1.70;0.70;;;5.20;99.90;;;;;;5040989;28;20910;-93
2020/12/27 10:56:10;;;;;;;1.90;0.70;;;5.20;99.90;;;;;;5037357;28;20446;-92
2020/12/27 10:58:42;;;;;;;1.70;0.73;;;5.20;99.90;;;;;;5036693;28;20476;-91
2020/12/27 11:01:12;;;;;;;1.50;0.50;;;5.30;99.90;;;;;;5032715;28;20543;-92
2020/12/27 11:03:42;;;;;;;1.67;0.63;;;5.30;99.90;;;;;;5035221;28;20454;-93
2020/12/27 11:06:10;;;;;;;1.50;0.60;;;5.20;99.90;;;;;;5032859;28;20804;-93
2020/12/27 11:08:36;;;;;;;2.60;0.80;;;5.10;99.90;;;;;;5039561;28;20462;-92
2020/12/27 11:11:07;;;;;;;1.80;0.70;;;5.20;99.90;;;;;;5040435;28;20464;-92
2020/12/27 11:13:34;;;;;;;1.67;0.73;;;5.20;99.90;;;;;;5049483;28;20457;-91
2020/12/27 11:16:01;;;;;;;1.97;0.70;;;5.20;99.90;;;;;;5046361;28;20476;-89
2020/12/27 11:18:32;;;;;;;1.70;0.87;;;5.20;99.90;;;;;;5040060;28;20466;-90
2020/12/27 11:20:58;;;;;;;1.57;0.70;;;5.20;99.90;;;;;;5038984;28;20454;-91
2020/12/27 11:23:29;;;;;;;1.50;0.60;;;5.20;99.90;;;;;;5040967;28;20462;-91
2020/12/27 11:25:55;;;;;;;2.13;0.90;;;5.20;99.90;;;;;;5038386;28;20819;-90
2020/12/27 11:28:26;;;;;;;1.70;0.70;;;5.30;99.90;;;;;;5040865;28;20482;-90
2020/12/27 11:34:32;;;;;;;1.70;0.70;;;5.40;99.90;;;;;;4965652;28;20459;-91
2020/12/27 11:36:59;;;;;;;1.70;0.73;;;5.50;99.90;;;;;;5045792;28;20449;-91
2020/12/27 11:39:29;;;;;;;1.93;0.70;;;5.70;99.90;;;;;;5044851;28;20479;-91
2020/12/27 11:42:05;;;;;;;1.60;0.60;;;5.80;99.90;;;;;;5049062;28;20457;-91
2020/12/27 11:44:31;;;;;;;1.60;0.60;;;5.90;99.90;;;;;;5056345;28;20466;-90
2020/12/27 11:46:58;;;;;;;1.83;0.70;;;5.90;99.90;;;;;;5045797;28;20559;-91
2020/12/27 11:49:25;;;;;;;1.87;0.70;;;6.00;99.90;;;;;;5042356;28;20471;-90
2020/12/27 11:51:51;;;;;;;1.90;0.77;;;6.00;99.90;;;;;;5041083;28;20464;-90
2020/12/27 11:54:19;;;;;;;2.27;0.73;;;6.00;99.90;;;;;;5037769;28;20459;-90
2020/12/27 11:56:46;;;;;;;1.73;0.80;;;6.00;99.90;;;;;;5043540;28;20455;-90
2020/12/27 11:59:20;;;;;;;1.60;0.73;;;6.00;99.90;;;;;;5042476;28;20463;-90
2020/12/27 12:01:55;;;;;;;1.50;0.60;;;5.90;99.90;;;;;;5042593;28;20474;-91
2020/12/27 12:07:41;;;;;;;6.10;0.80;;;5.80;99.90;;;;;;5046770;28;20817;-92
2020/12/27 12:10:40;;;;;;;1.60;0.60;;;5.80;99.90;;;;;;5045502;28;20558;-91
2020/12/27 12:13:08;;;;;;;1.60;0.80;;;5.80;99.90;;;;;;4950263;29;20491;-91
2020/12/27 12:15:35;;;;;;;1.73;0.70;;;5.80;99.90;;;;;;4946183;28;20454;-92
2020/12/27 12:18:40;;;;;;;1.93;0.80;;;5.70;99.90;;;;;;5037918;28;20487;-93
2020/12/27 12:21:11;;;;;;;1.53;0.67;;;5.70;99.90;;;;;;5033335;28;20467;-92
2020/12/27 12:23:37;;;;;;;1.70;0.70;;;5.60;99.90;;;;;;5038523;28;20452;-93
2020/12/27 12:26:04;;;;;;;1.80;0.70;;;5.50;99.90;;;;;;5037960;28;20492;-91
2020/12/27 12:28:31;;;;;;;1.70;0.60;;;5.50;99.90;;;;;;5038932;28;20803;-93
2020/12/27 12:30:58;;;;;;;1.93;0.80;;;5.40;99.90;;;;;;5037750;28;20550;-92
2020/12/27 12:33:24;;;;;;;1.63;0.60;;;5.40;99.90;;;;;;5037404;28;20485;-92
2020/12/27 12:35:55;;;;;;;1.90;0.70;;;5.40;99.90;;;;;;5042993;28;20455;-91
2020/12/27 12:38:26;;;;;;;2.00;0.90;;;5.30;99.90;;;;;;5048668;28;20464;-89
2020/12/27 12:40:52;;;;;;;1.70;0.70;;;5.30;99.90;;;;;;5042047;28;20541;-90
2020/12/27 12:43:18;;;;;;;1.97;0.80;;;5.20;99.90;;;;;;5046827;28;20452;-89
2020/12/27 12:45:48;;;;;;;2.67;0.83;;;5.20;99.90;;;;;;5045083;28;20537;-94
2020/12/27 12:48:14;;;;;;;1.90;0.70;;;5.20;99.90;;;;;;5050874;28;20495;-91
2020/12/27 12:50:42;;;;;;;3.93;0.87;;;5.20;99.90;;;;;;5050643;28;20457;-91
2020/12/27 12:53:14;;;;;;;1.60;0.80;;;5.20;99.90;;;;;;5049523;28;20458;-91
2020/12/27 12:55:41;;;;;;;1.50;0.63;;;5.10;99.90;;;;;;5049999;28;20475;-90
2020/12/27 12:58:11;;;;;;;1.80;0.70;;;5.10;99.90;;;;;;5052346;28;20524;-91
2020/12/27 13:00:37;;;;;;;1.93;0.77;;;5.10;99.90;;;;;;5051052;28;20780;-91
2020/12/27 13:03:18;;;;;;;1.83;0.90;;;5.10;99.90;;;;;;5049752;28;20495;-91
2020/12/27 13:05:54;;;;;;;2.57;0.90;;;5.00;99.90;;;;;;5060566;28;20489;-88
2020/12/27 13:08:22;;;;;;;1.77;1.00;;;5.00;99.90;;;;;;5047690;28;20456;-91
2020/12/27 13:11:27;;;;;;;2.47;0.97;;;5.00;99.90;;;;;;5039449;28;20489;-89
2020/12/27 13:13:53;;;;;;;4.87;0.80;;;5.00;99.90;;;;;;5023299;28;20442;-87
2020/12/27 13:16:32;;;;;;;1.90;0.90;;;4.90;99.90;;;;;;5023142;28;20461;-91
2020/12/27 13:19:00;;;;;;;2.30;0.90;;;4.80;99.90;;;;;;5014807;28;20460;-88
2020/12/27 13:21:26;;;;;;;2.37;1.10;;;4.90;99.90;;;;;;5028916;28;20510;-90
2020/12/27 13:23:53;;;;;;;1.90;0.80;;;4.80;99.90;;;;;;5041740;28;20462;-87
2020/12/27 13:26:19;;;;;;;2.17;0.90;;;4.80;99.90;;;;;;5051996;28;20543;-90
2020/12/27 13:28:46;;;;;;;2.30;1.07;;;4.80;99.90;;;;;;5052536;28;20517;-88
2020/12/27 13:31:12;;;;;;;4.90;0.90;;;4.80;99.90;;;;;;5049734;28;20484;-88